createdAt,value
2024-02-03T00:03:28.559Z,10.37
2024-02-03T00:08:33.899Z,10.39
2024-02-03T00:13:37.441Z,10.37
2024-02-03T00:18:41.042Z,10.37
2024-02-03T00:23:48.017Z,10.40
2024-02-03T00:28:52.350Z,10.46
2024-02-03T00:33:56.195Z,10.45
2024-02-03T00:39:02.292Z,10.44
2024-02-03T00:44:06.699Z,10.45
2024-02-03T00:49:10.155Z,10.45
2024-02-03T00:54:14.962Z,10.52
2024-02-03T00:59:18.426Z,10.53
2024-02-03T01:04:22.012Z,10.52
2024-02-03T01:09:27.243Z,10.53
2024-02-03T01:14:31.928Z,10.54
2024-02-03T01:19:37.317Z,10.57
2024-02-03T01:24:43.464Z,10.56
2024-02-03T01:29:47.092Z,10.56
2024-02-03T01:34:50.888Z,10.60
2024-02-03T01:39:55.973Z,10.60
2024-02-03T01:44:59.350Z,10.65
2024-02-03T01:50:04.301Z,10.69
2024-02-03T01:55:10.081Z,10.73
2024-02-03T02:00:15.131Z,10.73
2024-02-03T02:05:18.770Z,10.79
2024-02-03T02:10:23.979Z,10.82
2024-02-03T02:15:27.787Z,10.83
2024-02-03T02:20:32.981Z,10.86
2024-02-03T02:25:36.517Z,10.89
2024-02-03T02:30:40.231Z,10.89
2024-02-03T02:35:50.355Z,10.92
2024-02-03T02:40:53.987Z,10.91
2024-02-03T02:45:57.750Z,10.93
2024-02-03T02:51:02.601Z,10.95
2024-02-03T02:56:06.599Z,10.90
2024-02-03T03:01:10.048Z,10.95
2024-02-03T03:06:14.961Z,10.95
2024-02-03T03:11:18.632Z,10.95
2024-02-03T03:16:22.403Z,10.96
2024-02-03T03:21:27.183Z,11.00
2024-02-03T03:26:30.628Z,11.00
2024-02-03T03:31:34.813Z,11.02
2024-02-03T03:36:39.591Z,11.04
2024-02-03T03:41:42.971Z,11.04
2024-02-03T03:46:46.383Z,11.02
2024-02-03T03:51:51.068Z,11.02
2024-02-03T03:56:54.321Z,11.01
2024-02-03T04:01:57.375Z,11.00
2024-02-03T04:07:02.188Z,11.00
2024-02-03T04:12:06.133Z,11.02
2024-02-03T04:17:09.512Z,11.00
2024-02-03T04:22:15.036Z,10.98
2024-02-03T04:27:18.431Z,10.93
2024-02-03T04:32:21.758Z,10.94
2024-02-03T04:37:26.486Z,10.94
2024-02-03T04:42:29.714Z,10.94
2024-02-03T04:47:33.283Z,10.95
2024-02-03T04:52:38.084Z,10.97
2024-02-03T04:57:41.371Z,10.92
2024-02-03T05:02:44.769Z,10.93
2024-02-03T05:07:50.190Z,10.92
2024-02-03T05:12:53.591Z,10.88
2024-02-03T05:17:57.314Z,10.88
2024-02-03T05:23:02.324Z,10.87
2024-02-03T05:28:06.012Z,10.94
2024-02-03T05:33:09.487Z,10.96
2024-02-03T05:38:14.720Z,10.97
2024-02-03T05:43:18.023Z,10.99
2024-02-03T05:48:21.455Z,10.99
2024-02-03T05:53:26.200Z,10.99
2024-02-03T05:58:29.593Z,10.99
2024-02-03T06:03:32.951Z,11.03
2024-02-03T06:08:38.577Z,11.07
2024-02-03T06:13:41.992Z,11.04
2024-02-03T06:18:45.294Z,11.02
2024-02-03T06:23:50.156Z,11.03
2024-02-03T06:28:53.790Z,11.06
2024-02-03T06:33:57.374Z,11.01
2024-02-03T06:39:02.275Z,11.02
2024-02-03T06:44:05.947Z,11.01
2024-02-03T06:49:09.668Z,11.01
2024-02-03T06:54:14.836Z,11.04
2024-02-03T06:59:18.206Z,11.05
2024-02-03T07:04:21.651Z,11.07
2024-02-03T07:09:26.488Z,11.08
2024-02-03T07:14:30.118Z,11.13
2024-02-03T07:19:33.581Z,11.13
2024-02-03T07:24:41.617Z,11.16
2024-02-03T07:29:45.144Z,11.18
2024-02-03T07:34:49.077Z,11.21
2024-02-03T07:39:53.862Z,11.21
2024-02-03T07:44:57.288Z,11.20
2024-02-03T07:50:01.195Z,11.26
2024-02-03T07:55:06.909Z,11.30
2024-02-03T08:00:10.898Z,11.40
2024-02-03T08:05:18.751Z,11.45
2024-02-03T08:10:24.107Z,11.50
2024-02-03T08:15:30.632Z,11.52
2024-02-03T08:20:34.012Z,11.54
2024-02-03T08:25:38.805Z,11.55
2024-02-03T08:30:42.814Z,11.56
2024-02-03T08:35:46.173Z,11.60
2024-02-03T08:40:51.777Z,11.59
2024-02-03T08:45:55.204Z,11.70
2024-02-03T08:50:59.449Z,11.83
2024-02-03T08:56:08.051Z,11.89
2024-02-03T09:01:11.600Z,11.97
2024-02-03T09:06:15.135Z,12.12
2024-02-03T09:11:20.338Z,12.18
2024-02-03T09:16:23.604Z,12.25
2024-02-03T09:21:27.413Z,12.21
2024-02-03T09:26:32.127Z,12.19
2024-02-03T09:31:35.550Z,12.18
2024-02-03T09:41:49.870Z,12.17
2024-02-03T09:46:53.873Z,12.19
2024-02-03T09:51:57.423Z,12.25
2024-02-03T09:57:03.338Z,12.31
2024-02-03T10:02:06.491Z,12.34
2024-02-03T10:07:09.834Z,12.36
2024-02-03T10:12:22.260Z,12.43
2024-02-03T10:17:25.818Z,12.49
2024-02-03T10:22:29.397Z,12.47
2024-02-03T10:27:34.287Z,12.51
2024-02-03T10:32:37.654Z,12.53
2024-02-03T10:37:41.953Z,12.60
2024-02-03T10:42:49.166Z,12.71
2024-02-03T10:47:55.102Z,12.73
2024-02-03T10:53:03.788Z,12.83
2024-02-03T10:58:09.737Z,12.80
2024-02-03T11:03:16.459Z,12.81
2024-02-03T11:08:22.121Z,12.82
2024-02-03T11:13:28.752Z,12.84
2024-02-03T11:18:41.327Z,12.79
2024-02-03T11:23:45.772Z,12.74
2024-02-03T11:28:50.504Z,12.72
2024-02-03T11:33:54.008Z,12.76
2024-02-03T11:38:57.836Z,12.78
2024-02-03T11:44:02.808Z,12.74
2024-02-03T11:49:07.544Z,12.68
2024-02-03T11:54:11.077Z,12.74
2024-02-03T11:59:28.277Z,12.69
2024-02-03T12:04:32.359Z,12.69
2024-02-03T12:09:38.877Z,12.70
2024-02-03T12:14:44.065Z,12.80
2024-02-03T12:19:47.870Z,12.81
2024-02-03T12:24:57.615Z,12.85
2024-02-03T12:30:08.447Z,12.80
2024-02-03T12:35:12.207Z,12.73
2024-02-03T12:40:15.620Z,12.73
2024-02-03T12:45:28.490Z,12.77
2024-02-03T12:50:34.616Z,12.73
2024-02-03T12:55:38.042Z,12.74
2024-02-03T13:00:43.496Z,12.75
2024-02-03T13:05:48.862Z,12.72
2024-02-03T13:10:52.460Z,12.69
2024-02-03T13:16:03.043Z,12.73
2024-02-03T13:21:07.142Z,12.72
2024-02-03T13:26:11.767Z,12.77
2024-02-03T13:31:16.952Z,12.80
2024-02-03T13:36:20.689Z,12.73
2024-02-03T13:41:25.702Z,12.70
2024-02-03T13:46:32.964Z,12.77
2024-02-03T13:51:36.487Z,12.77
2024-02-03T13:56:42.622Z,12.71
2024-02-03T14:01:48.107Z,12.64
2024-02-03T14:06:52.008Z,12.52
2024-02-03T14:11:55.647Z,12.45
2024-02-03T14:17:00.476Z,12.39
2024-02-03T14:22:05.135Z,12.33
2024-02-03T14:27:11.129Z,12.31
2024-02-03T14:32:20.488Z,12.26
2024-02-03T14:37:25.025Z,12.20
2024-02-03T14:42:32.617Z,12.21
2024-02-03T14:47:40.154Z,12.11
2024-02-03T14:52:43.828Z,12.11
2024-02-03T14:57:48.394Z,12.09
2024-02-03T15:02:53.442Z,11.98
2024-02-03T15:07:56.775Z,11.99
2024-02-03T15:13:04.062Z,11.93
2024-02-03T15:18:09.703Z,11.93
2024-02-03T15:23:14.563Z,11.86
2024-02-03T15:28:18.585Z,11.89
2024-02-03T15:33:23.579Z,11.82
2024-02-03T15:38:27.174Z,11.79
2024-02-03T15:43:30.614Z,11.73
2024-02-03T15:48:35.844Z,11.69
2024-02-03T15:53:45.662Z,11.68
2024-02-03T15:58:49.651Z,11.66
2024-02-03T16:03:59.444Z,11.64
2024-02-03T16:09:04.201Z,11.62
2024-02-03T16:14:07.585Z,11.64
2024-02-03T16:19:12.963Z,11.63
2024-02-03T16:24:17.574Z,11.67
2024-02-03T16:29:21.376Z,11.67
2024-02-03T16:34:26.514Z,11.66
2024-02-03T16:39:30.914Z,11.67
2024-02-03T16:44:35.146Z,11.64
2024-02-03T16:49:45.029Z,11.63
2024-02-03T16:54:48.507Z,11.58
2024-02-03T16:59:52.557Z,11.53
2024-02-03T17:05:01.506Z,11.45
2024-02-03T17:10:06.342Z,11.39
2024-02-03T17:15:11.651Z,11.37
2024-02-03T17:20:17.008Z,11.35
2024-02-03T17:25:20.368Z,11.34
2024-02-03T17:30:28.128Z,11.36
2024-02-03T17:35:33.540Z,11.32
2024-02-03T17:40:37.052Z,11.32
2024-02-03T17:45:40.683Z,11.27
2024-02-03T17:50:45.970Z,11.25
2024-02-03T17:55:49.353Z,11.29
2024-02-03T18:00:54.097Z,11.29
2024-02-03T18:05:59.020Z,11.27
2024-02-03T18:11:03.405Z,11.25
2024-02-03T18:16:18.501Z,11.25
2024-02-03T18:21:23.765Z,11.26
2024-02-03T18:26:27.105Z,11.26
2024-02-03T18:31:30.527Z,11.29
2024-02-03T18:36:36.082Z,11.28
2024-02-03T18:41:41.129Z,11.30
2024-02-03T18:46:47.423Z,11.28
2024-02-03T18:51:54.096Z,11.29
2024-02-03T18:56:57.571Z,11.28
2024-02-03T19:02:02.431Z,11.25
2024-02-03T19:07:09.098Z,11.23
2024-02-03T19:12:28.251Z,11.19
2024-02-03T19:17:39.475Z,11.21
2024-02-03T19:22:44.872Z,11.11
2024-02-03T19:27:48.462Z,11.11
2024-02-03T19:32:55.800Z,11.11
2024-02-03T19:38:04.600Z,11.15
2024-02-03T19:43:08.341Z,11.14
2024-02-03T19:48:11.819Z,11.19
2024-02-03T19:53:18.391Z,11.22
2024-02-03T19:58:31.255Z,11.24
2024-02-03T20:03:36.045Z,11.29
2024-02-03T20:08:41.030Z,11.25
2024-02-03T20:13:52.655Z,11.24
2024-02-03T20:18:56.133Z,11.24
2024-02-03T20:24:01.613Z,11.24
2024-02-03T20:29:05.844Z,11.21
2024-02-03T20:34:17.066Z,11.22
2024-02-03T20:39:22.201Z,11.24
2024-02-03T20:44:26.510Z,11.23
2024-02-03T20:49:30.701Z,11.09
2024-02-03T20:54:36.263Z,11.08
2024-02-03T20:59:39.606Z,11.11
2024-02-03T21:04:44.207Z,11.10
2024-02-03T21:09:51.193Z,11.11
2024-02-03T21:15:04.309Z,11.09
2024-02-03T21:20:09.072Z,11.04
2024-02-03T21:25:14.095Z,11.02
2024-02-03T21:30:17.647Z,11.05
2024-02-03T21:35:21.807Z,11.03
2024-02-03T21:40:26.692Z,10.94
2024-02-03T21:45:30.417Z,10.94
2024-02-03T21:50:34.027Z,10.91
2024-02-03T21:55:39.330Z,10.90
2024-02-03T22:00:49.029Z,10.86
2024-02-03T22:05:53.250Z,10.89
2024-02-03T22:10:58.862Z,10.96
2024-02-03T22:16:02.159Z,10.99
2024-02-03T22:21:05.766Z,11.02
2024-02-03T22:26:14.444Z,11.03
2024-02-03T22:31:18.478Z,11.07
2024-02-03T22:36:22.003Z,11.11
2024-02-03T22:41:27.518Z,11.14
2024-02-03T22:46:31.013Z,11.15
2024-02-03T22:51:37.098Z,11.13
2024-02-03T22:56:45.143Z,11.09
2024-02-03T23:01:49.432Z,11.10
2024-02-03T23:06:53.149Z,11.13
2024-02-03T23:12:01.487Z,11.13
2024-02-03T23:17:07.143Z,11.13
2024-02-03T23:22:11.227Z,11.14
2024-02-03T23:27:16.537Z,11.15
2024-02-03T23:32:19.999Z,11.16
2024-02-03T23:37:23.215Z,11.16
2024-02-03T23:42:28.629Z,11.15
2024-02-03T23:47:32.050Z,11.16
2024-02-03T23:52:41.631Z,11.13
2024-02-03T23:57:46.340Z,11.15
